Flight Track Log - Related Links

Times and Time Zones

All times are in EDT time to prevent confusion due to time zone crossing. See the UAL33 flight status page for this flight to view local times or setup timezone preferences in your user account.

Time Position Orientation Groundspeed Altitude Reporting Facility
EDT Latitude Longitude Course Direction KTS MPH feet Rate Location/Type
Thu 09:50:03 PM 41.9830 -87.9250 319° Northwest 154 177 700  Level FlightAware ADS-B
Thu 09:50:32 PM 41.9990 -87.9440 319° Northwest 161 185 2,000 2,634 Climbing FlightAware ADS-B
Thu 09:50:44 PM 42.0070 -87.9520 323° Northwest 181 208 2,500 2,100 Climbing FlightAware ADS-B
Thu 09:51:12 PM 42.0290 -87.9740 323° Northwest 231 266 3,400 2,421 Climbing FlightAware ADS-B
Thu 09:51:41 PM 42.0520 -87.9960 325° Northwest 254 292 4,800 3,623 Climbing FlightAware ADS-B
Thu 09:52:05 PM 42.0800 -88.0200 328° Northwest 265 305 6,600 4,500 Climbing FlightAware ADS-B
Thu 09:52:21 PM 42.0980 -88.0350 328° Northwest 269 310 7,800 4,047 Climbing FlightAware ADS-B
Thu 09:52:48 PM 42.1260 -88.0600 326° Northwest 279 321 9,500 3,692 Climbing FlightAware ADS-B
Thu 09:53:00 PM 42.1360 -88.0770 308° West 283 326 10,200 3,563 Climbing FlightAware ADS-B
Thu 09:53:20 PM 42.1420 -88.1110 283° West 289 333 11,400 3,300 Climbing FlightAware ADS-B
Thu 09:54:00 PM 42.1250 -88.1780 251° West 297 342 13,500 3,146 Climbing FlightAware ADS-B
Thu 09:54:42 PM 42.0940 -88.2500 240° Southwest 328 377 15,700 3,450 Climbing FlightAware ADS-B
Thu 09:55:20 PM 42.0570 -88.3090 230° Southwest 337 388 18,100 3,732 Climbing FlightAware ADS-B
Thu 09:56:04 PM 42.0120 -88.3810 230° Southwest 345 397 20,800 3,558 Climbing FlightAware ADS-B
Thu 09:56:46 PM 41.9700 -88.4510 231° Southwest 351 404 23,200 2,643 Climbing FlightAware ADS-B
Thu 09:57:28 PM 41.9250 -88.5260 231° Southwest 384 442 24,500 1,568 Climbing FlightAware ADS-B
Thu 09:58:14 PM 41.8820 -88.6250 240° Southwest 421 484 25,500 1,463 Climbing FlightAware ADS-B
Thu 09:58:50 PM 41.8470 -88.7100 241° Southwest 440 506 26,500 1,650 Climbing FlightAware ADS-B
Thu 09:59:34 PM 41.8030 -88.8170 241° Southwest 459 528 27,700 2,045 Climbing FlightAware ADS-B
Thu 10:00:18 PM 41.7570 -88.9270 241° Southwest 458 527 29,500 2,714 Climbing FlightAware ADS-B
Thu 10:00:58 PM 41.7160 -89.0260 241° Southwest 447 514 31,500 3,419 Climbing FlightAware ADS-B
Thu 10:01:44 PM 41.6720 -89.1300 240° Southwest 412 474 34,400 3,073 Climbing FlightAware ADS-B
Thu 10:02:20 PM 41.6390 -89.2090 241° Southwest 408 470 35,700 1,952 Climbing FlightAware ADS-B
Thu 10:03:07 PM 41.5970 -89.3090 241° Southwest 406 467 37,100 1,467 Climbing FlightAware ADS-B
Thu 10:03:50 PM 41.5560 -89.4050 240° Southwest 413 475 37,900 1,012 Climbing FlightAware ADS-B
Thu 10:04:30 PM 41.5180 -89.4960 241° Southwest 421 484 38,500 947 Climbing FlightAware ADS-B
Thu 10:05:06 PM 41.4840 -89.5760 240° Southwest 422 486 39,100 837 Climbing FlightAware ADS-B
Thu 10:05:56 PM 41.4350 -89.6920 241° Southwest 433 498 39,700 600 Climbing FlightAware ADS-B
Thu 10:06:36 PM 41.3910 -89.7830 237° Southwest 443 510 40,000 222 Climbing FlightAware ADS-B
Thu 10:07:17 PM 41.3280 -89.8540 220° Southwest 448 516 40,000  Level FlightAware ADS-B
Thu 10:07:58 PM 41.2590 -89.9200 216° Southwest 446 513 40,000  Level FlightAware ADS-B
Thu 10:08:43 PM 41.1840 -89.9920 216° Southwest 446 513 40,000  Level FlightAware ADS-B
Thu 10:09:23 PM 41.1180 -90.0560 216° Southwest 447 514 40,000  Level FlightAware ADS-B
Thu 10:10:03 PM 41.0510 -90.1190 215° Southwest 446 513 40,000  Level FlightAware ADS-B
Thu 10:10:45 PM 40.9800 -90.1870 216° Southwest 444 511 40,000  Level FlightAware ADS-B
Thu 10:11:37 PM 40.8920 -90.2710 216° Southwest 442 509 40,000  Level FlightAware ADS-B
Thu 10:12:17 PM 40.8270 -90.3320 215° Southwest 443 510 40,000  Level FlightAware ADS-B
Thu 10:13:02 PM 40.7510 -90.4040 216° Southwest 445 512 40,000  Level FlightAware ADS-B
Thu 10:13:39 PM 40.6890 -90.4620 215° Southwest 446 513 40,000  Level FlightAware ADS-B
Thu 10:14:25 PM 40.6140 -90.5320 215° Southwest 440 506 40,000  Level FlightAware ADS-B
Thu 10:15:05 PM 40.5460 -90.5960 216° Southwest 434 499 40,000  Level FlightAware ADS-B
Thu 10:15:50 PM 40.4720 -90.6650 215° Southwest 432 497 40,000  Level FlightAware ADS-B
Thu 10:16:28 PM 40.4110 -90.7220 215° Southwest 433 498 40,000  Level FlightAware ADS-B
Thu 10:17:11 PM 40.3410 -90.7870 215° Southwest 433 498 40,000  Level FlightAware ADS-B
Thu 10:17:54 PM 40.2700 -90.8530 215° Southwest 433 498 40,000  Level FlightAware ADS-B
Thu 10:18:39 PM 40.1990 -90.9190 215° Southwest 432 497 40,000  Level FlightAware ADS-B
Thu 10:19:18 PM 40.1380 -90.9750 215° Southwest 431 496 40,000  Level FlightAware ADS-B
Thu 10:20:03 PM 40.0610 -91.0460 215° Southwest 431 496 40,000  Level FlightAware ADS-B
Thu 10:20:53 PM 39.9860 -91.1140 215° Southwest 431 496 40,000  Level FlightAware ADS-B
Thu 10:21:37 PM 39.9080 -91.1860 215° Southwest 432 497 40,000  Level FlightAware ADS-B
Thu 10:22:13 PM 39.8480 -91.2410 215° Southwest 432 497 40,000  Level FlightAware ADS-B
Thu 10:23:03 PM 39.7650 -91.3160 215° Southwest 430 495 40,000  Level FlightAware ADS-B
Thu 10:23:41 PM 39.7050 -91.3710 215° Southwest 430 495 40,000  Level FlightAware ADS-B
Thu 10:24:44 PM 39.6090 -91.4560 214° Southwest 429 494 40,000  Level FlightAware ADS-B
Thu 10:25:20 PM 39.5460 -91.5140 215° Southwest 429 494 40,000  Level FlightAware ADS-B
Thu 10:26:04 PM 39.4720 -91.5810 215° Southwest 430 495 40,000  Level FlightAware ADS-B
Thu 10:26:42 PM 39.4100 -91.6360 214° Southwest 431 496 40,000  Level FlightAware ADS-B
Thu 10:27:40 PM 39.3160 -91.7210 215° Southwest 430 495 40,000  Level FlightAware ADS-B
Thu 10:28:19 PM 39.2610 -91.7680 213° Southwest 430 495 40,000  Level FlightAware ADS-B
Thu 10:29:08 PM 39.1920 -91.8280 214° Southwest 430 495 40,000  Level FlightAware ADS-B
Thu 10:29:49 PM 39.1040 -91.9100 216° Southwest 432 497 40,000  Level FlightAware ADS-B
Thu 10:30:32 PM 39.0310 -91.9740 214° Southwest 431 496 40,000  Level FlightAware ADS-B
Thu 10:31:12 PM 38.9660 -92.0310 214° Southwest 431 496 40,000  Level FlightAware ADS-B
Thu 10:31:56 PM 38.8940 -92.0950 215° Southwest 434 499 40,000  Level FlightAware ADS-B
Thu 10:32:45 PM 38.8180 -92.1620 214° Southwest 434 499 40,000  Level FlightAware ADS-B
Thu 10:33:34 PM 38.7310 -92.2380 214° Southwest 436 502 40,000  Level FlightAware ADS-B
Thu 10:34:12 PM 38.6780 -92.2840 214° Southwest 436 502 40,000  Level FlightAware ADS-B
Thu 10:35:00 PM 38.6100 -92.3430 214° Southwest 436 502 40,000  Level FlightAware ADS-B
Thu 10:35:39 PM 38.5240 -92.4190 215° Southwest 436 502 40,000  Level FlightAware ADS-B
Thu 10:36:22 PM 38.4520 -92.4810 214° Southwest 436 502 40,000  Level FlightAware ADS-B
Thu 10:37:04 PM 38.3830 -92.5410 214° Southwest 436 502 40,000  Level FlightAware ADS-B
Thu 10:37:46 PM 38.3110 -92.6030 214° Southwest 437 503 40,000  Level FlightAware ADS-B
Thu 10:38:26 PM 38.2440 -92.6610 214° Southwest 437 503 40,000  Level FlightAware ADS-B
Thu 10:39:10 PM 38.1710 -92.7230 214° Southwest 437 503 40,000  Level FlightAware ADS-B
Thu 10:39:50 PM 38.1030 -92.7820 214° Southwest 437 503 40,000  Level FlightAware ADS-B
Thu 10:40:34 PM 38.0300 -92.8450 214° Southwest 439 505 40,000  Level FlightAware ADS-B
Thu 10:41:14 PM 37.9620 -92.9030 214° Southwest 440 506 40,000  Level FlightAware ADS-B
Thu 10:41:57 PM 37.8910 -92.9630 214° Southwest 440 506 40,000  Level FlightAware ADS-B
Thu 10:42:40 PM 37.8160 -93.0270 214° Southwest 441 507 40,000  Level FlightAware ADS-B
Thu 10:43:18 PM 37.7530 -93.0810 214° Southwest 443 510 40,000  Level FlightAware ADS-B
Thu 10:44:04 PM 37.6740 -93.1470 213° Southwest 444 511 40,000  Level FlightAware ADS-B
Thu 10:44:44 PM 37.6050 -93.2050 214° Southwest 444 511 40,000  Level FlightAware ADS-B
Thu 10:45:26 PM 37.5350 -93.2650 214° Southwest 444 511 40,000  Level FlightAware ADS-B
Thu 10:46:08 PM 37.4620 -93.3260 214° Southwest 445 512 40,000  Level FlightAware ADS-B
Thu 10:46:46 PM 37.3960 -93.3800 213° Southwest 445 512 40,000  Level FlightAware ADS-B
Thu 10:47:32 PM 37.3180 -93.4460 214° Southwest 447 514 40,000  Level FlightAware ADS-B
Thu 10:48:16 PM 37.2430 -93.5090 214° Southwest 447 514 40,000  Level FlightAware ADS-B
Thu 10:48:57 PM 37.1720 -93.5680 214° Southwest 447 514 40,000  Level FlightAware ADS-B
Thu 10:49:37 PM 37.1030 -93.6250 213° Southwest 447 514 40,000  Level FlightAware ADS-B
Thu 10:50:22 PM 37.0240 -93.6900 213° Southwest 448 516 40,000  Level FlightAware ADS-B
Thu 10:51:02 PM 36.9550 -93.7480 214° Southwest 448 516 40,000  Level FlightAware ADS-B
Thu 10:51:46 PM 36.8780 -93.8110 213° Southwest 448 516 40,000  Level FlightAware ADS-B
Thu 10:52:26 PM 36.8090 -93.8670 213° Southwest 448 516 40,000  Level FlightAware ADS-B
Thu 10:53:08 PM 36.7360 -93.9280 214° Southwest 449 517 40,000  Level FlightAware ADS-B
Thu 10:53:52 PM 36.6610 -93.9890 213° Southwest 447 514 40,000  Level FlightAware ADS-B
Thu 10:54:30 PM 36.5940 -94.0430 213° Southwest 449 517 40,000  Level FlightAware ADS-B
Thu 10:55:14 PM 36.5180 -94.1050 213° Southwest 451 519 40,000  Level FlightAware ADS-B
Thu 10:55:59 PM 36.4410 -94.1680 213° Southwest 450 518 40,000  Level FlightAware ADS-B
Thu 10:56:38 PM 36.3720 -94.2240 213° Southwest 449 517 40,000  Level FlightAware ADS-B
Thu 10:57:20 PM 36.2980 -94.2840 213° Southwest 450 518 40,000  Level FlightAware ADS-B
Thu 10:58:04 PM 36.2210 -94.3460 213° Southwest 449 517 40,000  Level FlightAware ADS-B
Thu 10:58:44 PM 36.1550 -94.3990 213° Southwest 450 518 40,000  Level FlightAware ADS-B
Thu 10:59:28 PM 36.0760 -94.4630 213° Southwest 450 518 40,000  Level FlightAware ADS-B
Thu 11:00:08 PM 36.0080 -94.5180 213° Southwest 450 518 40,000  Level FlightAware ADS-B
Thu 11:00:50 PM 35.9320 -94.5780 213° Southwest 450 518 40,000  Level FlightAware ADS-B
Thu 11:01:34 PM 35.8560 -94.6390 213° Southwest 451 519 40,000  Level FlightAware ADS-B
Thu 11:02:13 PM 35.7890 -94.6920 213° Southwest 449 517 40,000  Level FlightAware ADS-B
Thu 11:02:58 PM 35.7100 -94.7550 213° Southwest 451 519 40,000  Level FlightAware ADS-B
Thu 11:03:35 PM 35.6490 -94.8040 213° Southwest 451 519 40,000  Level FlightAware ADS-B
Thu 11:04:17 PM 35.5800 -94.8580 212° Southwest 451 519 40,000  Level FlightAware ADS-B
Thu 11:05:00 PM 35.4950 -94.9250 213° Southwest 452 520 40,000  Level FlightAware ADS-B
Thu 11:05:45 PM 35.4140 -94.9890 213° Southwest 453 521 40,000  Level FlightAware ADS-B
Thu 11:06:20 PM 35.3570 -95.0340 213° Southwest 453 521 40,000  Level FlightAware ADS-B
Thu 11:07:51 PM 35.2610 -95.1080 212° Southwest 453 521 40,000  Level FlightAware ADS-B
Thu 11:08:27 PM 35.2060 -95.1500 212° Southwest 453 521 40,000  Level FlightAware ADS-B
Thu 11:09:16 PM 35.1320 -95.2060 212° Southwest 453 521 40,000  Level FlightAware ADS-B
Thu 11:09:50 PM 35.0810 -95.2450 212° Southwest 453 521 40,000  Level FlightAware ADS-B
Thu 11:10:40 PM 34.8900 -95.3980 213° Southwest 462 532 40,000  Level FlightAware ADS-B
Thu 11:11:36 PM 34.7900 -95.4760 213° Southwest 463 533 40,000  Level FlightAware ADS-B
Thu 11:12:18 PM 34.7110 -95.5360 212° Southwest 463 533 40,000  Level FlightAware ADS-B
Thu 11:12:59 PM 34.6370 -95.5930 212° Southwest 464 534 40,000  Level FlightAware ADS-B
Thu 11:13:43 PM 34.5560 -95.6560 213° Southwest 465 535 40,000  Level FlightAware ADS-B
Thu 11:14:24 PM 34.4830 -95.7110 212° Southwest 465 535 40,000  Level FlightAware ADS-B
Thu 11:15:05 PM 34.4210 -95.7590 213° Southwest 465 535 40,000  Level FlightAware ADS-B
Thu 11:15:49 PM 34.3280 -95.8300 212° Southwest 464 534 40,000  Level FlightAware ADS-B
Thu 11:16:29 PM 34.2560 -95.8850 212° Southwest 466 536 40,000  Level FlightAware ADS-B
Thu 11:17:10 PM 34.1820 -95.9410 212° Southwest 466 536 40,000  Level FlightAware ADS-B
Thu 11:17:53 PM 34.1020 -96.0020 212° Southwest 464 534 40,000  Level FlightAware ADS-B
Thu 11:18:36 PM 34.0240 -96.0600 212° Southwest 464 534 40,000  Level FlightAware ADS-B
Thu 11:19:17 PM 33.9490 -96.1180 213° Southwest 465 535 40,000  Level FlightAware ADS-B
Thu 11:19:59 PM 33.8730 -96.1750 212° Southwest 462 532 40,000  Level FlightAware ADS-B
Thu 11:20:22 PM 33.8301 -96.2068 212° Southwest 464 534 40,000  Level FlightAware ADS-B
Thu 11:20:58 PM 33.7663 -96.2547 212° Southwest 464 534 40,000  Level FlightAware ADS-B
Thu 11:21:52 PM 33.6677 -96.3286 212° Southwest 461 531 40,000  Level FlightAware ADS-B
Thu 11:22:22 PM 33.6121 -96.3702 212° Southwest 464 534 40,000  Level FlightAware ADS-B
Thu 11:23:09 PM 33.5273 -96.4335 212° Southwest 464 534 40,000  Level FlightAware ADS-B
Thu 11:23:40 PM 33.4708 -96.4756 212° Southwest 464 534 40,000  Level FlightAware ADS-B
Thu 11:24:36 PM 33.3689 -96.5511 212° Southwest 464 534 40,000  Level FlightAware ADS-B
Thu 11:25:09 PM 33.3087 -96.5958 212° Southwest 465 535 40,000  Level FlightAware ADS-B
Thu 11:25:39 PM 33.2532 -96.6369 212° Southwest 464 534 40,000  Level FlightAware ADS-B
Thu 11:26:13 PM 33.1920 -96.6820 212° Southwest 463 533 40,000  Level FlightAware ADS-B
Thu 11:26:46 PM 33.1350 -96.7240 212° Southwest 461 531 40,000  Level FlightAware ADS-B
Thu 11:27:33 PM 33.0472 -96.7888 212° Southwest 462 532 40,000  Level FlightAware ADS-B
Thu 11:28:05 PM 32.9878 -96.8325 212° Southwest 463 533 40,000  Level FlightAware ADS-B
Thu 11:28:53 PM 32.8990 -96.8880 208° Southwest 475 547 40,000  Level FlightAware ADS-B
Thu 11:29:28 PM 32.8280 -96.8860 179° South 492 566 40,000 -296 Level FlightAware ADS-B
Thu 11:30:14 PM 32.7170 -96.8540 166° South 495 570 39,600 -1,099 Descending FlightAware ADS-B
Thu 11:31:39 PM 32.5270 -96.7990 166° South 495 570 37,600 -1,327 Descending FlightAware ADS-B
Thu 11:32:07 PM 32.4638 -96.7814 167° South 499 574 37,100 -621 Descending FlightAware ADS-B
Thu 11:32:37 PM 32.3958 -96.7620 166° South 500 575 37,000 -65 Descending FlightAware ADS-B
Thu 11:33:40 PM 32.2552 -96.7219 166° South 498 573 37,000  Level FlightAware ADS-B
Thu 11:34:43 PM 32.1131 -96.6816 166° South 500 575 37,000  Level FlightAware ADS-B
Thu 11:35:14 PM 32.0448 -96.6624 167° South 499 574 37,000  Level FlightAware ADS-B
Thu 11:35:44 PM 31.9757 -96.6428 166° South 498 573 37,000  Level FlightAware ADS-B
Thu 11:36:14 PM 31.9085 -96.6238 167° South 498 573 37,000 -492 Level FlightAware ADS-B
Thu 11:36:45 PM 31.8399 -96.6044 166° South 499 574 36,500 -1,645 Descending FlightAware ADS-B
Thu 11:38:18 PM 31.6296 -96.5454 167° South 511 588 33,600 -2,098 Descending FlightAware ADS-B
Thu 11:38:48 PM 31.5596 -96.5255 166° South 511 588 32,200 -2,523 Descending FlightAware ADS-B
Thu 11:39:46 PM 31.4280 -96.4797 162° South 509 586 29,900 -2,598 Descending FlightAware ADS-B
Thu 11:40:25 PM 31.3432 -96.4368 154° Southeast 530 610 28,000 -2,609 Descending FlightAware ADS-B
Thu 11:40:55 PM 31.2785 -96.3950 151° Southeast 524 603 26,900 -2,242 Descending FlightAware ADS-B
Thu 11:41:56 PM 31.1517 -96.3126 151° Southeast 509 586 24,600 -2,242 Descending FlightAware ADS-B
Thu 11:42:26 PM 31.0894 -96.2721 151° Southeast 502 578 23,500 -2,177 Descending FlightAware ADS-B
Thu 11:44:00 PM 30.9012 -96.1501 151° Southeast 489 563 20,100 -2,086 Descending FlightAware ADS-B
Thu 11:45:33 PM 30.7259 -96.0370 151° Southeast 444 511 17,000 -1,946 Descending FlightAware ADS-B
Thu 11:47:05 PM 30.5672 -95.9355 151° Southeast 407 468 14,100 -1,800 Descending FlightAware ADS-B
Thu 11:48:13 PM 30.4598 -95.8651 149° Southeast 385 443 12,200 -1,243 Descending FlightAware ADS-B
Thu 11:48:56 PM 30.4034 -95.8102 138° Southeast 350 403 11,800 -933 Descending FlightAware ADS-B
Thu 11:50:28 PM 30.2985 -95.7009 138° Southeast 323 372 10,100 -1,121 Descending FlightAware ADS-B
Thu 11:50:43 PM 30.2815 -95.6831 138° Southeast 321 369 9,800 -1,279 Descending FlightAware ADS-B
Thu 11:51:29 PM 30.2311 -95.6304 138° Southeast 321 369 8,800 -1,325 Descending FlightAware ADS-B
Thu 11:52:00 PM 30.1966 -95.5944 138° Southeast 320 368 8,100 -1,258 Descending FlightAware ADS-B
Thu 11:52:31 PM 30.1626 -95.5592 138° Southeast 317 365 7,500 -1,065 Descending FlightAware ADS-B
Thu 11:53:02 PM 30.1292 -95.5241 138° Southeast 313 360 7,000 -811 Descending FlightAware ADS-B
Thu 11:53:08 PM 30.1228 -95.5173 137° Southeast 312 359 7,000  Level FlightAware ADS-B
Thu 11:53:19 PM 30.1135 -95.5038 123° Southeast 310 357 7,000  Level FlightAware ADS-B
Thu 11:53:28 PM 30.1081 -95.4893 110° East 309 356 7,000  Level FlightAware ADS-B
Thu 11:53:31 PM 30.1071 -95.4845 104° East 308 354 7,000  Level FlightAware ADS-B
Thu 11:53:56 PM 30.1059 -95.4448 90° East 293 337 7,000  Level FlightAware ADS-B
Thu 11:54:12 PM 30.1058 -95.4211 90° East 279 321 7,000  Level FlightAware ADS-B
Thu 11:54:58 PM 30.1060 -95.3563 90° East 259 298 7,000  Level FlightAware ADS-B
Thu 11:55:43 PM 30.1061 -95.2942 90° East 257 296 7,000  Level FlightAware ADS-B
Thu 11:55:58 PM 30.1062 -95.2736 90° East 258 297 7,000  Level FlightAware ADS-B
Thu 11:56:30 PM 30.1061 -95.2293 90° East 257 296 7,000 -255 Level FlightAware ADS-B
Thu 11:56:45 PM 30.1061 -95.2090 90° East 257 296 6,800 -923 Descending FlightAware ADS-B
Thu 11:56:56 PM 30.1061 -95.1939 90° East 259 298 6,600 -930 Descending FlightAware ADS-B
Thu 11:57:56 PM 30.1059 -95.1121 90° East 252 290 5,700 -900 Descending FlightAware ADS-B

Login

Don't have an account? Register now (free) for customized features, flight alerts, and more!